Time;durP1;ratioP1;P1;durP2;ratioP2;P2;SDS_P1;SDS_P2;PMS_P1;PMS_P2;Temp;Humidity;BMP_temperature;BMP_pressure;BME280_temperature;BME280_humidity;BME280_pressure;Samples;Min_cycle;Max_cycle;Signal;HPM_P1;HPM_P2
2023/05/05 00:00:00;;;;;;;;;;;19.80;87.40;20.10;99791.00;;;;338014;28;83485;-85
2023/05/05 00:00:14;;;;;;;;;;;19.80;87.30;20.00;99795.00;;;;338784;28;93151;-85
2023/05/05 00:00:27;;;;;;;;;;;19.80;87.30;20.00;99792.00;;;;338100;28;83483;-86
2023/05/05 00:00:38;;;;;;;;;;;19.80;87.20;20.00;99797.00;;;;337245;28;97503;-85
2023/05/05 00:00:50;;;;;;;;;;;19.80;87.20;20.00;99792.00;;;;339370;28;83394;-85
2023/05/05 00:01:02;;;;;;;;;;;19.80;87.00;20.10;99794.00;;;;338547;28;94792;-85
2023/05/05 00:01:14;;;;;;;;;;;19.80;87.20;20.10;99796.00;;;;338072;28;83347;-86
2023/05/05 00:01:26;;;;;;;;;;;19.90;87.40;20.00;99792.00;;;;337343;28;93796;-85
2023/05/05 00:01:38;;;;;;;;;;;19.90;87.40;20.10;99793.00;;;;339287;28;83412;-85
2023/05/05 00:01:49;;;;;;;;;;;19.80;87.20;20.10;99796.00;;;;338581;28;94251;-85
2023/05/05 00:02:01;;;;;;;;;;;19.80;87.10;20.10;99795.00;;;;338480;28;83355;-85
2023/05/05 00:02:13;;;;;;;;;;;19.90;87.30;20.10;99794.00;;;;338528;28;97729;-85
2023/05/05 00:02:25;;;;;;;;;;;19.90;87.30;20.10;99796.00;;;;338072;28;83401;-85
2023/05/05 00:02:37;;;;;;;;;;;19.90;87.30;20.00;99791.00;;;;338706;28;93838;-85
2023/05/05 00:02:49;;;;;;;;;;;19.90;87.40;19.80;99795.00;;;;339287;28;83500;-85
2023/05/05 00:03:01;;;;;;;;;;;19.80;87.30;19.90;99798.00;;;;338448;28;97672;-85
2023/05/05 00:03:13;;;;;;;;;;;19.80;87.40;20.00;99794.00;;;;338050;28;83414;-85
2023/05/05 00:03:25;;;;;;;;;;;19.80;87.20;20.00;99794.00;;;;334736;29;93616;-85
2023/05/05 00:03:37;;;;;;;;;;;19.80;87.10;20.10;99793.00;;;;336706;28;83509;-85
2023/05/05 00:03:51;;;;;;;;;;;19.80;87.10;20.10;99794.00;;;;336080;28;93537;-85
2023/05/05 00:04:03;;;;;;;;;;;19.80;87.00;20.10;99794.00;;;;338076;28;83456;-85
2023/05/05 00:04:16;;;;;;;;;;;19.90;86.90;20.10;99793.00;;;;338554;28;96333;-86
2023/05/05 00:04:29;;;;;;;;;;;19.80;86.80;20.10;99798.00;;;;339349;28;83519;-85
2023/05/05 00:04:41;;;;;;;;;;;19.80;86.90;20.10;99802.00;;;;337256;28;95373;-85
2023/05/05 00:04:52;;;;;;;;;;;19.80;86.80;20.10;99803.00;;;;335367;29;83437;-85
2023/05/05 00:05:05;;;;;;;;;;;19.90;86.80;20.10;99798.00;;;;335844;28;96354;-85
2023/05/05 00:05:17;;;;;;;;;;;19.90;86.90;20.10;99798.00;;;;332893;29;83869;-85
2023/05/05 00:05:29;;;;;;;;;;;19.90;87.10;20.20;99796.00;;;;335886;28;96572;-85
2023/05/05 00:05:41;;;;;;;;;;;19.80;87.10;20.20;99802.00;;;;339305;28;83482;-85
2023/05/05 00:05:56;;;;;;;;;;;19.90;87.10;20.10;99798.00;;;;339862;28;94532;-85
2023/05/05 00:06:08;;;;;;;;;;;19.90;87.10;20.10;99791.00;;;;340793;28;83367;-85
2023/05/05 00:06:19;;;;;;;;;;;19.80;87.00;20.10;99797.00;;;;337320;28;93942;-85
2023/05/05 00:06:31;;;;;;;;;;;19.90;86.90;20.00;99803.00;;;;336712;28;82504;-85
2023/05/05 00:06:43;;;;;;;;;;;19.90;86.80;20.00;99800.00;;;;334817;29;94729;-85
2023/05/05 00:06:56;;;;;;;;;;;19.90;86.80;20.00;99797.00;;;;338244;28;83451;-86
2023/05/05 00:07:07;;;;;;;;;;;19.80;87.30;19.90;99802.00;;;;336283;28;97362;-85
2023/05/05 00:07:19;;;;;;;;;;;19.80;87.00;19.90;99798.00;;;;335762;29;83436;-86
2023/05/05 00:07:31;;;;;;;;;;;19.90;87.40;19.80;99789.00;;;;337405;28;94593;-86
2023/05/05 00:07:43;;;;;;;;;;;19.80;87.50;19.80;99797.00;;;;339553;28;83285;-86
2023/05/05 00:07:55;;;;;;;;;;;19.80;87.50;19.90;99795.00;;;;336409;28;94229;-86
2023/05/05 00:08:07;;;;;;;;;;;19.80;87.30;19.90;99791.00;;;;339548;28;83453;-85
2023/05/05 00:08:19;;;;;;;;;;;19.80;87.30;20.00;99796.00;;;;338706;28;96585;-86
2023/05/05 00:08:30;;;;;;;;;;;19.80;87.50;20.00;99795.00;;;;339739;28;83245;-86
2023/05/05 00:08:42;;;;;;;;;;;19.80;87.50;19.90;99798.00;;;;338798;28;96369;-85
2023/05/05 00:08:55;;;;;;;;;;;19.80;87.50;19.80;99788.00;;;;339550;28;83389;-85
2023/05/05 00:09:06;;;;;;;;;;;19.80;87.50;19.80;99799.00;;;;338777;28;95355;-86
2023/05/05 00:09:18;;;;;;;;;;;19.80;87.70;19.90;99793.00;;;;338338;28;83271;-85
2023/05/05 00:09:30;;;;;;;;;;;19.80;87.70;19.80;99790.00;;;;337441;28;95842;-86
2023/05/05 00:09:42;;;;;;;;;;;19.80;88.30;19.80;99790.00;;;;338231;28;83373;-86
2023/05/05 00:09:54;;;;;;;;;;;19.80;87.80;19.80;99788.00;;;;337529;28;95543;-85
2023/05/05 00:10:06;;;;;;;;;;;19.80;87.80;19.90;99790.00;;;;338271;28;82471;-86
2023/05/05 00:10:18;;;;;;;;;;;19.80;87.80;19.90;99799.00;;;;337420;28;95078;-86
2023/05/05 00:10:30;;;;;;;;;;;19.80;87.60;19.90;99791.00;;;;336933;28;83318;-85
2023/05/05 00:10:45;;;;;;;;;;;19.80;87.70;19.90;99789.00;;;;338795;28;97221;-86
2023/05/05 00:10:57;;;;;;;;;;;19.70;87.40;19.90;99797.00;;;;340827;28;83477;-86
2023/05/05 00:11:08;;;;;;;;;;;19.70;87.40;19.80;99788.00;;;;337262;28;97363;-86
2023/05/05 00:11:20;;;;;;;;;;;19.70;87.70;19.70;99795.00;;;;338370;28;82412;-85
2023/05/05 00:11:33;;;;;;;;;;;19.70;87.80;19.80;99787.00;;;;338848;28;96641;-85
2023/05/05 00:11:45;;;;;;;;;;;19.70;87.60;19.80;99803.00;;;;339594;28;83431;-85
2023/05/05 00:11:57;;;;;;;;;;;19.70;87.60;19.80;99795.00;;;;337288;28;97057;-86
2023/05/05 00:12:09;;;;;;;;;;;19.70;87.40;19.90;99792.00;;;;339502;28;83402;-85
2023/05/05 00:12:20;;;;;;;;;;;19.70;87.50;19.90;99791.00;;;;337454;28;94126;-85
2023/05/05 00:12:33;;;;;;;;;;;19.70;87.50;19.90;99791.00;;;;339531;28;82494;-86
2023/05/05 00:12:45;;;;;;;;;;;19.70;87.60;19.90;99790.00;;;;338919;28;92275;-86
2023/05/05 00:12:56;;;;;;;;;;;19.70;87.60;19.80;99787.00;;;;338226;28;83416;-86
2023/05/05 00:13:08;;;;;;;;;;;19.70;87.90;19.80;99790.00;;;;336140;28;95109;-85
2023/05/05 00:13:20;;;;;;;;;;;19.70;88.00;19.80;99794.00;;;;338300;28;82437;-86
2023/05/05 00:13:32;;;;;;;;;;;19.70;87.80;19.80;99795.00;;;;338671;28;96950;-85
2023/05/05 00:13:44;;;;;;;;;;;19.70;87.70;19.80;99791.00;;;;337973;28;83495;-86
2023/05/05 00:13:56;;;;;;;;;;;19.70;87.40;19.80;99796.00;;;;338653;28;95435;-85
2023/05/05 00:14:07;;;;;;;;;;;19.70;87.80;19.80;99787.00;;;;340721;28;83441;-85
2023/05/05 00:14:19;;;;;;;;;;;19.70;87.80;19.90;99780.00;;;;335979;28;94360;-85
2023/05/05 00:14:31;;;;;;;;;;;19.60;87.50;19.80;99790.00;;;;335423;29;83818;-85
2023/05/05 00:14:43;;;;;;;;;;;19.70;87.90;19.80;99786.00;;;;335905;28;94590;-85
2023/05/05 00:14:55;;;;;;;;;;;19.60;88.20;19.70;99786.00;;;;337926;28;83294;-85
2023/05/05 00:15:07;;;;;;;;;;;19.60;88.40;19.70;99790.00;;;;333369;29;95312;-86
2023/05/05 00:15:19;;;;;;;;;;;19.60;88.30;19.80;99791.00;;;;336654;28;83276;-85
2023/05/05 00:15:30;;;;;;;;;;;19.60;87.80;19.80;99779.00;;;;335959;28;96433;-86
2023/05/05 00:15:43;;;;;;;;;;;19.60;88.00;19.90;99789.00;;;;335374;29;83446;-85
2023/05/05 00:15:55;;;;;;;;;;;19.60;88.10;19.80;99788.00;;;;337222;28;97192;-85
2023/05/05 00:16:07;;;;;;;;;;;19.60;88.20;19.70;99787.00;;;;338043;28;83360;-86
2023/05/05 00:16:19;;;;;;;;;;;19.60;88.50;19.70;99789.00;;;;337292;28;93680;-86
2023/05/05 00:16:31;;;;;;;;;;;19.60;88.70;19.80;99782.00;;;;338107;28;83361;-86
2023/05/05 00:16:43;;;;;;;;;;;19.60;88.50;19.70;99781.00;;;;335951;28;94863;-85
2023/05/05 00:16:54;;;;;;;;;;;19.60;88.60;19.80;99783.00;;;;336674;28;83637;-85
2023/05/05 00:17:06;;;;;;;;;;;19.60;88.30;19.80;99789.00;;;;335908;28;95469;-86
2023/05/05 00:17:18;;;;;;;;;;;19.60;88.30;19.70;99783.00;;;;336748;28;83401;-86
2023/05/05 00:17:30;;;;;;;;;;;19.60;88.50;19.80;99778.00;;;;334573;29;96532;-86
2023/05/05 00:17:42;;;;;;;;;;;19.60;88.20;19.90;99780.00;;;;339245;28;82508;-85
2023/05/05 00:17:54;;;;;;;;;;;19.60;88.20;20.00;99779.00;;;;338217;28;96492;-85
2023/05/05 00:18:06;;;;;;;;;;;19.60;88.30;19.90;99782.00;;;;336622;28;83437;-85
2023/05/05 00:18:19;;;;;;;;;;;19.60;88.20;19.90;99780.00;;;;337271;28;94342;-85
2023/05/05 00:18:32;;;;;;;;;;;19.60;88.20;19.80;99779.00;;;;338109;28;83447;-86
2023/05/05 00:18:44;;;;;;;;;;;19.60;88.50;19.80;99783.00;;;;335966;28;94456;-86
2023/05/05 00:18:56;;;;;;;;;;;19.60;88.20;19.80;99783.00;;;;339278;28;83426;-85
2023/05/05 00:19:08;;;;;;;;;;;19.60;88.10;19.80;99780.00;;;;337242;28;95319;-86
2023/05/05 00:19:20;;;;;;;;;;;19.60;88.10;19.80;99780.00;;;;339363;28;82530;-85
2023/05/05 00:19:32;;;;;;;;;;;19.60;88.30;19.80;99777.00;;;;337321;28;94191;-86
2023/05/05 00:19:44;;;;;;;;;;;19.60;88.20;19.80;99779.00;;;;337952;28;83436;-85
2023/05/05 00:19:56;;;;;;;;;;;19.60;88.50;19.90;99781.00;;;;337293;28;93620;-86
2023/05/05 00:20:08;;;;;;;;;;;19.60;88.50;19.90;99778.00;;;;339369;28;82504;-85
2023/05/05 00:20:21;;;;;;;;;;;19.60;88.60;19.70;99781.00;;;;338573;28;94203;-85
2023/05/05 00:20:33;;;;;;;;;;;19.60;89.00;19.70;99779.00;;;;338031;28;83405;-85
2023/05/05 00:20:46;;;;;;;;;;;19.60;89.10;19.80;99779.00;;;;338620;28;96037;-86
2023/05/05 00:20:57;;;;;;;;;;;19.60;88.80;19.80;99777.00;;;;337934;28;83565;-86
2023/05/05 00:21:09;;;;;;;;;;;19.60;88.90;19.80;99779.00;;;;338574;28;95450;-86
2023/05/05 00:21:21;;;;;;;;;;;19.50;89.00;19.70;99778.00;;;;336791;28;83369;-85
2023/05/05 00:21:33;;;;;;;;;;;19.60;89.00;19.60;99772.00;;;;338710;28;93055;-85
2023/05/05 00:21:45;;;;;;;;;;;19.60;88.90;19.70;99780.00;;;;337967;28;83487;-86
2023/05/05 00:21:56;;;;;;;;;;;19.50;88.70;19.80;99772.00;;;;338618;28;94481;-85
2023/05/05 00:22:08;;;;;;;;;;;19.50;88.60;19.80;99779.00;;;;337967;28;83310;-86
2023/05/05 00:22:20;;;;;;;;;;;19.60;88.70;19.90;99772.00;;;;333345;29;93574;-85
2023/05/05 00:22:32;;;;;;;;;;;19.60;88.90;19.90;99780.00;;;;336783;28;83449;-86
2023/05/05 00:22:43;;;;;;;;;;;19.60;88.90;19.90;99772.00;;;;338623;28;94502;-85
2023/05/05 00:22:55;;;;;;;;;;;19.60;88.70;19.90;99771.00;;;;337989;28;83465;-85
2023/05/05 00:23:07;;;;;;;;;;;19.60;88.60;19.90;99780.00;;;;335820;28;95120;-86
2023/05/05 00:23:19;;;;;;;;;;;19.60;88.60;19.90;99774.00;;;;339414;28;83324;-86
2023/05/05 00:23:31;;;;;;;;;;;19.60;88.60;19.90;99779.00;;;;341298;28;94187;-85
2023/05/05 00:23:43;;;;;;;;;;;19.60;88.80;19.80;99770.00;;;;340668;28;84407;-85
2023/05/05 00:23:55;;;;;;;;;;;19.60;88.60;19.90;99775.00;;;;337270;28;95827;-85
2023/05/05 00:24:09;;;;;;;;;;;19.60;88.50;19.90;99770.00;;;;337992;28;83205;-85
2023/05/05 00:24:20;;;;;;;;;;;19.60;89.20;19.90;99777.00;;;;337151;28;97372;-85
2023/05/05 00:24:32;;;;;;;;;;;19.60;88.60;19.90;99779.00;;;;339336;28;83467;-85
2023/05/05 00:24:44;;;;;;;;;;;19.60;88.50;19.80;99775.00;;;;337321;28;94892;-85
2023/05/05 00:24:56;;;;;;;;;;;19.60;88.60;19.80;99776.00;;;;338043;28;83353;-85
2023/05/05 00:25:08;;;;;;;;;;;19.60;88.90;19.80;99772.00;;;;337141;28;95286;-85
2023/05/05 00:25:20;;;;;;;;;;;19.60;88.80;19.70;99779.00;;;;339352;28;83377;-85
2023/05/05 00:25:32;;;;;;;;;;;19.60;89.00;19.70;99776.00;;;;334603;29;96233;-85
2023/05/05 00:25:44;;;;;;;;;;;19.60;88.90;19.80;99780.00;;;;336639;28;82517;-85
2023/05/05 00:25:56;;;;;;;;;;;19.60;88.90;19.70;99775.00;;;;334624;29;96259;-85
2023/05/05 00:26:08;;;;;;;;;;;19.60;88.90;19.70;99768.00;;;;337979;28;83317;-86
2023/05/05 00:26:20;;;;;;;;;;;19.60;89.30;19.70;99767.00;;;;337221;28;93189;-85
2023/05/05 00:26:31;;;;;;;;;;;19.60;89.10;19.80;99771.00;;;;340723;28;83246;-85
2023/05/05 00:26:43;;;;;;;;;;;19.60;89.00;19.90;99779.00;;;;338573;28;96929;-85
2023/05/05 00:26:55;;;;;;;;;;;19.60;89.10;19.80;99773.00;;;;337991;28;83509;-85
2023/05/05 00:27:07;;;;;;;;;;;19.60;89.40;19.80;99780.00;;;;339836;28;94830;-85
2023/05/05 00:27:18;;;;;;;;;;;19.60;89.30;19.70;99774.00;;;;340641;28;83608;-85
2023/05/05 00:27:30;;;;;;;;;;;19.60;89.70;19.80;99774.00;;;;339793;28;97398;-85
2023/05/05 00:27:42;;;;;;;;;;;19.60;89.60;19.70;99774.00;;;;339243;28;82622;-86
2023/05/05 00:27:54;;;;;;;;;;;19.60;89.50;19.60;99768.00;;;;337300;28;94294;-86
2023/05/05 00:28:06;;;;;;;;;;;19.60;89.70;19.70;99770.00;;;;336678;28;83325;-86
2023/05/05 00:28:18;;;;;;;;;;;19.50;89.50;19.70;99765.00;;;;333220;29;97172;-85
2023/05/05 00:28:30;;;;;;;;;;;19.50;89.10;19.80;99773.00;;;;336798;28;82498;-85
2023/05/05 00:28:41;;;;;;;;;;;19.50;89.20;19.80;99775.00;;;;338568;28;96476;-86
2023/05/05 00:28:53;;;;;;;;;;;19.60;89.20;19.80;99777.00;;;;339387;28;83339;-85
2023/05/05 00:29:05;;;;;;;;;;;19.60;89.10;19.90;99770.00;;;;339804;28;97912;-85
2023/05/05 00:29:17;;;;;;;;;;;19.60;89.20;20.00;99772.00;;;;340713;28;83316;-85
2023/05/05 00:29:29;;;;;;;;;;;19.60;89.40;20.00;99772.00;;;;341326;28;93431;-85
2023/05/05 00:29:41;;;;;;;;;;;19.60;89.30;19.80;99772.00;;;;339286;28;83504;-85
2023/05/05 00:29:52;;;;;;;;;;;19.60;89.70;19.90;99775.00;;;;337350;28;93262;-85
2023/05/05 00:30:05;;;;;;;;;;;19.60;89.50;19.80;99777.00;;;;337983;28;83466;-86
2023/05/05 00:30:17;;;;;;;;;;;19.60;89.80;19.80;99778.00;;;;337136;28;97766;-86
2023/05/05 00:30:29;;;;;;;;;;;19.60;89.50;19.80;99772.00;;;;339375;28;83382;-85
2023/05/05 00:30:41;;;;;;;;;;;19.60;89.80;19.80;99767.00;;;;337355;28;93973;-85
2023/05/05 00:30:53;;;;;;;;;;;19.60;89.50;19.80;99771.00;;;;336684;28;83263;-85
2023/05/05 00:31:06;;;;;;;;;;;19.60;89.80;19.70;99773.00;;;;338474;28;98019;-86
2023/05/05 00:31:18;;;;;;;;;;;19.60;90.10;19.60;99776.00;;;;337894;28;82657;-85
2023/05/05 00:31:29;;;;;;;;;;;19.60;90.20;19.60;99775.00;;;;337248;28;94671;-85
2023/05/05 00:31:41;;;;;;;;;;;19.50;90.10;19.70;99765.00;;;;339345;28;82496;-85
2023/05/05 00:31:53;;;;;;;;;;;19.50;90.00;19.70;99760.00;;;;337158;28;97584;-85
2023/05/05 00:32:05;;;;;;;;;;;19.50;90.00;19.60;99766.00;;;;337955;28;83511;-85
2023/05/05 00:32:17;;;;;;;;;;;19.50;90.00;19.70;99765.00;;;;338514;28;95012;-85
2023/05/05 00:32:29;;;;;;;;;;;19.50;90.00;19.80;99769.00;;;;337919;28;82676;-85
2023/05/05 00:32:40;;;;;;;;;;;19.50;89.90;19.80;99778.00;;;;335979;28;94134;-85
2023/05/05 00:32:53;;;;;;;;;;;19.50;90.00;19.80;99771.00;;;;338108;28;83331;-85
2023/05/05 00:33:05;;;;;;;;;;;19.50;90.00;19.90;99770.00;;;;338388;28;97324;-85
2023/05/05 00:33:17;;;;;;;;;;;19.60;90.00;19.90;99771.00;;;;338001;28;83464;-85
2023/05/05 00:33:29;;;;;;;;;;;19.60;90.10;19.70;99768.00;;;;337146;28;97425;-84
2023/05/05 00:33:41;;;;;;;;;;;19.60;90.20;19.80;99761.00;;;;337915;28;83508;-86
2023/05/05 00:33:53;;;;;;;;;;;19.60;90.10;19.90;99766.00;;;;337236;28;96229;-85
2023/05/05 00:34:05;;;;;;;;;;;19.60;90.00;19.90;99764.00;;;;339394;28;83322;-85
2023/05/05 00:34:17;;;;;;;;;;;19.60;90.10;19.90;99764.00;;;;337291;28;93209;-85
2023/05/05 00:34:29;;;;;;;;;;;19.60;90.10;19.90;99764.00;;;;336642;28;83234;-85
2023/05/05 00:34:41;;;;;;;;;;;19.60;90.20;19.90;99770.00;;;;334576;29;96874;-85
2023/05/05 00:34:53;;;;;;;;;;;19.60;90.20;19.70;99757.00;;;;338045;28;83293;-85
2023/05/05 00:35:05;;;;;;;;;;;19.60;90.30;19.70;99763.00;;;;337145;28;95519;-85
2023/05/05 00:35:17;;;;;;;;;;;19.60;90.40;19.80;99766.00;;;;332815;29;83402;-85
2023/05/05 00:35:28;;;;;;;;;;;19.60;90.20;19.80;99760.00;;;;337255;28;93954;-85
2023/05/05 00:35:41;;;;;;;;;;;19.60;90.30;19.70;99764.00;;;;340675;28;83304;-85
2023/05/05 00:35:53;;;;;;;;;;;19.60;90.40;19.80;99768.00;;;;337192;28;96456;-85
2023/05/05 00:36:05;;;;;;;;;;;19.60;90.20;19.70;99763.00;;;;339262;28;82525;-85
2023/05/05 00:36:17;;;;;;;;;;;19.60;90.30;19.80;99769.00;;;;338432;28;97631;-85
2023/05/05 00:36:29;;;;;;;;;;;19.60;90.30;19.70;99768.00;;;;336579;28;83496;-86
2023/05/05 00:36:41;;;;;;;;;;;19.60;90.30;19.70;99768.00;;;;337275;28;96664;-85
2023/05/05 00:36:53;;;;;;;;;;;19.60;90.30;19.80;99755.00;;;;339393;28;83303;-85
2023/05/05 00:37:06;;;;;;;;;;;19.60;90.20;19.80;99765.00;;;;335805;28;96735;-85
2023/05/05 00:37:18;;;;;;;;;;;19.60;90.20;19.80;99768.00;;;;338030;28;83588;-85
2023/05/05 00:37:29;;;;;;;;;;;19.60;90.20;19.70;99763.00;;;;337223;28;94086;-85
2023/05/05 00:37:41;;;;;;;;;;;19.60;90.40;19.70;99763.00;;;;337859;28;83480;-85
2023/05/05 00:37:54;;;;;;;;;;;19.60;90.30;19.80;99754.00;;;;337221;28;96068;-85
2023/05/05 00:38:06;;;;;;;;;;;19.60;90.20;19.80;99763.00;;;;340652;28;83383;-85
2023/05/05 00:38:17;;;;;;;;;;;19.60;90.20;19.80;99758.00;;;;339742;28;97520;-85
2023/05/05 00:38:29;;;;;;;;;;;19.60;90.20;19.80;99758.00;;;;336608;28;83580;-85
2023/05/05 00:38:41;;;;;;;;;;;19.60;90.30;19.90;99765.00;;;;337278;28;94223;-86
2023/05/05 00:38:53;;;;;;;;;;;19.60;90.40;19.90;99758.00;;;;340747;28;82446;-86
2023/05/05 00:39:05;;;;;;;;;;;19.60;90.50;19.80;99762.00;;;;338446;28;98439;-85
2023/05/05 00:39:17;;;;;;;;;;;19.60;90.70;19.80;99756.00;;;;338047;28;82414;-85
2023/05/05 00:39:29;;;;;;;;;;;19.60;90.60;19.90;99766.00;;;;338501;28;94549;-85
2023/05/05 00:39:41;;;;;;;;;;;19.60;90.40;19.90;99766.00;;;;340697;28;83313;-85
2023/05/05 00:39:52;;;;;;;;;;;19.60;90.40;19.90;99763.00;;;;334630;28;94557;-85
2023/05/05 00:40:05;;;;;;;;;;;19.60;90.40;19.90;99762.00;;;;338123;28;83421;-85
2023/05/05 00:40:18;;;;;;;;;;;19.60;90.40;19.90;99765.00;;;;339799;28;96940;-85
2023/05/05 00:40:30;;;;;;;;;;;19.70;90.40;19.80;99767.00;;;;339266;28;83484;-85
2023/05/05 00:40:42;;;;;;;;;;;19.60;90.40;19.90;99766.00;;;;340054;28;94181;-85
2023/05/05 00:40:54;;;;;;;;;;;19.70;90.40;19.80;99767.00;;;;338087;28;83339;-85
2023/05/05 00:41:06;;;;;;;;;;;19.70;90.50;19.80;99765.00;;;;337265;28;94202;-85
2023/05/05 00:41:18;;;;;;;;;;;19.60;90.40;19.80;99759.00;;;;336727;28;83361;-85
2023/05/05 00:41:30;;;;;;;;;;;19.60;90.50;19.80;99765.00;;;;335978;28;93822;-85
2023/05/05 00:41:42;;;;;;;;;;;19.70;90.60;19.80;99767.00;;;;339206;28;83395;-85
2023/05/05 00:41:53;;;;;;;;;;;19.60;90.50;19.90;99759.00;;;;338548;28;96170;-85
2023/05/05 00:42:06;;;;;;;;;;;19.70;90.40;19.80;99765.00;;;;339514;28;83193;-84
2023/05/05 00:42:17;;;;;;;;;;;19.70;90.50;19.90;99761.00;;;;338601;28;93911;-86
2023/05/05 00:42:39;;;;;;;;;;;19.60;90.40;19.80;99769.00;;;;337988;28;83443;-85
2023/05/05 00:42:52;;;;;;;;;;;19.60;90.50;19.80;99769.00;;;;336080;28;93613;-86
2023/05/05 00:43:04;;;;;;;;;;;19.60;90.50;19.90;99764.00;;;;336719;28;83224;-85
2023/05/05 00:43:15;;;;;;;;;;;19.60;90.50;19.90;99764.00;;;;337439;28;94517;-85
2023/05/05 00:43:27;;;;;;;;;;;19.70;90.50;19.90;99750.00;;;;338160;28;82548;-85
2023/05/05 00:43:39;;;;;;;;;;;19.70;90.50;19.90;99763.00;;;;337325;28;96587;-85
2023/05/05 00:43:51;;;;;;;;;;;19.70;90.40;19.80;99760.00;;;;338140;28;82467;-85
2023/05/05 00:44:03;;;;;;;;;;;19.70;90.60;19.80;99761.00;;;;337547;28;93183;-85
2023/05/05 00:44:15;;;;;;;;;;;19.60;90.60;19.80;99760.00;;;;336705;28;83318;-86
2023/05/05 00:44:37;;;;;;;;;;;19.70;90.40;19.80;99766.00;;;;340115;28;94479;-85
2023/05/05 00:44:51;;;;;;;;;;;19.70;90.40;19.80;99756.00;;;;339422;28;83348;-85
2023/05/05 00:45:04;;;;;;;;;;;19.70;90.70;19.80;99766.00;;;;337310;28;94417;-84
2023/05/05 00:45:16;;;;;;;;;;;19.60;90.70;19.80;99766.00;;;;336840;28;83173;-84
2023/05/05 00:45:28;;;;;;;;;;;19.60;90.60;19.90;99764.00;;;;337183;28;97687;-85
2023/05/05 00:45:43;;;;;;;;;;;19.60;90.50;19.90;99758.00;;;;339422;28;82550;-85
2023/05/05 00:46:00;;;;;;;;;;;19.70;90.50;19.90;99764.00;;;;340022;28;93066;-85
2023/05/05 00:46:24;;;;;;;;;;;19.70;90.50;19.90;99761.00;;;;336919;28;83327;-85
2023/05/05 00:46:35;;;;;;;;;;;19.70;90.50;19.90;99763.00;;;;335956;28;94644;-85
2023/05/05 00:46:47;;;;;;;;;;;19.70;90.40;19.90;99764.00;;;;337992;28;83365;-85
2023/05/05 00:46:59;;;;;;;;;;;19.70;90.40;19.90;99758.00;;;;336052;28;94207;-85
2023/05/05 00:47:11;;;;;;;;;;;19.70;90.30;19.90;99769.00;;;;339399;28;83734;-85
2023/05/05 00:47:23;;;;;;;;;;;19.70;90.40;19.80;99762.00;;;;338327;28;95856;-85
2023/05/05 00:47:35;;;;;;;;;;;19.70;90.40;19.80;99758.00;;;;337741;28;83401;-85
2023/05/05 00:47:50;;;;;;;;;;;19.70;90.50;19.90;99764.00;;;;336791;28;97503;-85
2023/05/05 00:48:02;;;;;;;;;;;19.70;90.40;19.80;99763.00;;;;339161;28;83454;-85
2023/05/05 00:48:14;;;;;;;;;;;19.70;90.40;19.90;99764.00;;;;337198;28;93146;-85
2023/05/05 00:48:29;;;;;;;;;;;19.70;90.40;19.80;99764.00;;;;340616;28;82502;-85
2023/05/05 00:48:41;;;;;;;;;;;19.70;90.30;19.80;99771.00;;;;338581;28;94224;-85
2023/05/05 00:48:53;;;;;;;;;;;19.70;90.20;19.80;99765.00;;;;340653;28;83414;-86
2023/05/05 00:49:05;;;;;;;;;;;19.70;90.40;19.80;99760.00;;;;337243;28;96187;-85
2023/05/05 00:49:17;;;;;;;;;;;19.70;90.30;19.80;99763.00;;;;339368;28;83384;-86
2023/05/05 00:49:29;;;;;;;;;;;19.70;90.30;19.90;99760.00;;;;336149;28;96650;-85
2023/05/05 00:49:40;;;;;;;;;;;19.70;90.30;19.90;99760.00;;;;335973;29;83345;-84
2023/05/05 00:49:52;;;;;;;;;;;19.70;90.40;19.90;99766.00;;;;340284;28;93929;-85
2023/05/05 00:50:08;;;;;;;;;;;19.70;90.40;19.90;99769.00;;;;339401;28;83349;-85
2023/05/05 00:50:24;;;;;;;;;;;19.70;90.50;19.80;99759.00;;;;338806;28;93988;-85
2023/05/05 00:50:36;;;;;;;;;;;19.70;90.50;19.60;99766.00;;;;342356;28;82502;-85
2023/05/05 00:50:48;;;;;;;;;;;19.70;90.60;19.70;99759.00;;;;335104;29;97075;-85
2023/05/05 00:51:00;;;;;;;;;;;19.60;90.60;19.70;99764.00;;;;335712;29;84180;-85
2023/05/05 00:51:12;;;;;;;;;;;19.60;90.50;19.70;99764.00;;;;338839;28;96193;-85
2023/05/05 00:51:25;;;;;;;;;;;19.60;90.60;19.60;99764.00;;;;339892;28;82420;-85
2023/05/05 00:51:37;;;;;;;;;;;19.60;90.70;19.60;99763.00;;;;336336;28;96064;-85
2023/05/05 00:51:48;;;;;;;;;;;19.60;90.60;19.70;99764.00;;;;341100;28;83401;-85
2023/05/05 00:52:01;;;;;;;;;;;19.60;90.50;19.60;99763.00;;;;337826;28;94093;-85
2023/05/05 00:52:12;;;;;;;;;;;19.60;90.70;19.70;99767.00;;;;337255;28;83441;-85
2023/05/05 00:52:25;;;;;;;;;;;19.60;90.60;19.70;99763.00;;;;340453;28;92708;-85
2023/05/05 00:52:37;;;;;;;;;;;19.60;90.50;19.70;99763.00;;;;342554;28;82445;-85
2023/05/05 00:52:49;;;;;;;;;;;19.60;90.60;19.70;99765.00;;;;338711;28;93389;-85
2023/05/05 00:53:02;;;;;;;;;;;19.60;90.60;19.60;99764.00;;;;341976;28;83430;-85
2023/05/05 00:53:14;;;;;;;;;;;19.60;90.90;19.60;99765.00;;;;341576;28;94218;-85
2023/05/05 00:53:27;;;;;;;;;;;19.50;90.70;19.50;99765.00;;;;341029;28;82618;-85
2023/05/05 00:53:41;;;;;;;;;;;19.60;90.90;19.60;99765.00;;;;340395;28;95493;-85
2023/05/05 00:53:53;;;;;;;;;;;19.50;90.70;19.70;99754.00;;;;342457;28;82335;-85
2023/05/05 00:54:06;;;;;;;;;;;19.50;90.60;19.70;99765.00;;;;340304;28;95331;-85
2023/05/05 00:54:18;;;;;;;;;;;19.50;90.70;19.60;99765.00;;;;341040;28;83313;-85
2023/05/05 00:54:29;;;;;;;;;;;19.50;90.80;19.70;99762.00;;;;341497;28;93897;-85
2023/05/05 00:54:41;;;;;;;;;;;19.50;90.70;19.70;99764.00;;;;340974;28;83245;-85
2023/05/05 00:54:53;;;;;;;;;;;19.50;90.70;19.80;99760.00;;;;341646;28;96328;-85
2023/05/05 00:55:05;;;;;;;;;;;19.50;90.70;19.80;99762.00;;;;339654;28;83421;-85
2023/05/05 00:55:18;;;;;;;;;;;19.50;90.60;19.80;99764.00;;;;340369;28;97164;-85
2023/05/05 00:55:30;;;;;;;;;;;19.50;90.60;19.80;99760.00;;;;342472;28;82364;-85
2023/05/05 00:55:41;;;;;;;;;;;19.50;90.60;19.80;99762.00;;;;337615;28;93094;-85
2023/05/05 00:55:53;;;;;;;;;;;19.50;90.60;19.80;99759.00;;;;338674;28;83431;-85
2023/05/05 00:56:05;;;;;;;;;;;19.60;90.60;19.80;99773.00;;;;338492;28;94832;-86
2023/05/05 00:56:18;;;;;;;;;;;19.60;90.50;19.90;99768.00;;;;341047;28;82351;-85
2023/05/05 00:56:30;;;;;;;;;;;19.60;90.50;19.70;99759.00;;;;341695;28;92974;-85
2023/05/05 00:56:42;;;;;;;;;;;19.60;90.50;19.70;99758.00;;;;339822;28;83457;-85
2023/05/05 00:56:54;;;;;;;;;;;19.60;90.50;19.80;99761.00;;;;336446;28;91886;-85
2023/05/05 00:57:06;;;;;;;;;;;19.60;90.40;19.80;99762.00;;;;339788;28;82528;-85
2023/05/05 00:57:18;;;;;;;;;;;19.60;90.40;19.80;99761.00;;;;338770;28;93761;-86
2023/05/05 00:57:31;;;;;;;;;;;19.60;90.50;19.70;99763.00;;;;337980;28;82411;-85
2023/05/05 00:57:43;;;;;;;;;;;19.60;90.50;19.60;99760.00;;;;338458;28;94566;-85
2023/05/05 00:57:56;;;;;;;;;;;19.60;90.60;19.60;99765.00;;;;340718;28;83323;-85
2023/05/05 00:58:07;;;;;;;;;;;19.60;90.60;19.70;99765.00;;;;338390;28;97502;-85
2023/05/05 00:58:19;;;;;;;;;;;19.60;90.50;19.80;99768.00;;;;340621;28;83104;-85
2023/05/05 00:58:31;;;;;;;;;;;19.60;90.60;19.80;99761.00;;;;338421;28;96225;-86
2023/05/05 00:58:43;;;;;;;;;;;19.50;90.50;19.80;99761.00;;;;340574;28;83457;-85
2023/05/05 00:58:55;;;;;;;;;;;19.60;90.50;19.60;99767.00;;;;338564;28;96741;-85
2023/05/05 00:59:07;;;;;;;;;;;19.50;90.60;19.60;99760.00;;;;339346;28;82667;-86
2023/05/05 00:59:18;;;;;;;;;;;19.50;90.50;19.60;99759.00;;;;337118;28;96037;-85
2023/05/05 00:59:31;;;;;;;;;;;19.50;90.50;19.60;99766.00;;;;341982;28;83420;-85
2023/05/05 00:59:43;;;;;;;;;;;19.50;90.50;19.60;99758.00;;;;341186;28;94143;-85
2023/05/05 00:59:56;;;;;;;;;;;19.50;90.50;19.70;99773.00;;;;340698;28;83291;-85
2023/05/05 01:00:08;;;;;;;;;;;19.50;90.60;19.70;99766.00;;;;339792;28;98125;-85
2023/05/05 01:00:21;;;;;;;;;;;19.50;90.50;19.70;99766.00;;;;340676;28;83525;-85